Terminal Aerodrome Forecast
Issued by NWS Mt. Holly, NJ

Home | Current Version | Previous Version | Text Only | Print | Product List | Glossary On
Versions: 1 2 3 4 5 6 7 8 9 10 11 12 13 14 15 16 17 18 19 20 21 22 23 24 25 26 27 28 29 30 31 32 33 34 35
000
FTUS41 KPHI 030533
TAFPHL
TAF
KPHL 030533Z 0306/0412 06008KT P6SM OVC008
      TEMPO 0306/0310 -SHRA
     FM031000 05010KT P6SM BKN008 OVC015
      TEMPO 0313/0315 SCT008 BKN015
     FM031500 06008KT P6SM BKN015 BKN025
     FM031700 08008KT P6SM SCT025 BKN035
     FM040200 07008KT P6SM SCT012 OVC025
     FM040500 05010KT P6SM OVC012=

USA.gov is the U.S. government's official web portal to all federal, state and local government web resources and services.